Time;durP1;ratioP1;P1;durP2;ratioP2;P2;SDS_P1;SDS_P2;PMS_P1;PMS_P2;Temp;Humidity;BMP_temperature;BMP_pressure;BME280_temperature;BME280_humidity;BME280_pressure;Samples;Min_cycle;Max_cycle;Signal;HPM_P1;HPM_P2
2023/03/13 00:01:41;;;;;;;21.1;3.5;;;;;;;;;;;;;-73
2023/03/13 00:02:07;;;;;;;;;;;;;;;7.56;100;100113.3;;;;-72
2023/03/13 00:07:06;;;;;;;;;;;;;;;7.6;100;100102.9;;;;-71
2023/03/13 00:12:07;;;;;;;;;;;;;;;7.6;100;100092.9;;;;-72
2023/03/13 00:17:06;;;;;;;;;;;;;;;7.61;100;100066.5;;;;-72
2023/03/13 00:22:06;;;;;;;;;;;;;;;7.62;100;100049.9;;;;-72
2023/03/13 00:27:06;;;;;;;;;;;;;;;7.65;100;100044.7;;;;-72
2023/03/13 00:31:41;;;;;;;20.3;4;;;;;;;;;;;;;-73
2023/03/13 00:32:10;;;;;;;;;;;;;;;7.64;100;100026.8;;;;-73
2023/03/13 00:37:06;;;;;;;;;;;;;;;7.66;100;99998.42;;;;-72
2023/03/13 00:42:07;;;;;;;;;;;;;;;7.69;100;99984.48;;;;-72
2023/03/13 00:47:07;;;;;;;;;;;;;;;7.68;100;99969.02;;;;-71
2023/03/13 00:52:06;;;;;;;;;;;;;;;7.72;100;99961;;;;-72
2023/03/13 00:57:06;;;;;;;;;;;;;;;7.74;100;99948.8;;;;-72
2023/03/13 01:01:41;;;;;;;13.7;3.7;;;;;;;;;;;;;-71
2023/03/13 01:02:06;;;;;;;;;;;;;;;7.74;100;99940.2;;;;-74
2023/03/13 01:07:06;;;;;;;;;;;;;;;7.76;100;99922.25;;;;-73
2023/03/13 01:12:09;;;;;;;;;;;;;;;7.82;100;99910.64;;;;-72
2023/03/13 01:17:06;;;;;;;;;;;;;;;7.84;100;99882.8;;;;-73
2023/03/13 01:22:10;;;;;;;;;;;;;;;7.91;100;99872.8;;;;-73
2023/03/13 01:27:10;;;;;;;;;;;;;;;7.96;100;99851.97;;;;-72
2023/03/13 01:31:42;;;;;;;8.1;2.5;;;;;;;;;;;;;-73
2023/03/13 01:32:06;;;;;;;;;;;;;;;7.97;100;99840.27;;;;-73
2023/03/13 01:37:07;;;;;;;;;;;;;;;7.98;100;99832.47;;;;-72
2023/03/13 01:42:07;;;;;;;;;;;;;;;8.02;100;99842.39;;;;-73
2023/03/13 01:47:06;;;;;;;;;;;;;;;8.1;100;99812.5;;;;-73
2023/03/13 01:52:09;;;;;;;;;;;;;;;8.11;100;99809.17;;;;-73
2023/03/13 01:57:08;;;;;;;;;;;;;;;8.21;100;99792.45;;;;-72
2023/03/13 02:01:44;;;;;;;8.1;3.1;;;;;;;;;;;;;-73
2023/03/13 02:02:07;;;;;;;;;;;;;;;8.28;100;99768.77;;;;-73
2023/03/13 02:07:09;;;;;;;;;;;;;;;8.33;100;99751.02;;;;-72
2023/03/13 02:12:10;;;;;;;;;;;;;;;8.43;100;99740.82;;;;-73
2023/03/13 02:17:09;;;;;;;;;;;;;;;8.5;100;99728.66;;;;-72
2023/03/13 02:22:13;;;;;;;;;;;;;;;8.55;100;99718.69;;;;-73
2023/03/13 02:27:07;;;;;;;;;;;;;;;8.59;100;99712.86;;;;-73
2023/03/13 02:31:43;;;;;;;10.3;5;;;;;;;;;;;;;-74
2023/03/13 02:32:07;;;;;;;;;;;;;;;8.64;100;99680.08;;;;-72
2023/03/13 02:37:09;;;;;;;;;;;;;;;8.7;100;99684.51;;;;-72
2023/03/13 02:42:06;;;;;;;;;;;;;;;8.75;100;99685.55;;;;-73
2023/03/13 02:47:08;;;;;;;;;;;;;;;8.81;100;99673.97;;;;-73
2023/03/13 02:52:13;;;;;;;;;;;;;;;8.84;100;99663.83;;;;-73
2023/03/13 02:57:07;;;;;;;;;;;;;;;8.94;100;99668.61;;;;-73
2023/03/13 03:01:44;;;;;;;8.7;4.7;;;;;;;;;;;;;-73
2023/03/13 03:02:07;;;;;;;;;;;;;;;9.02;100;99670.59;;;;-73
2023/03/13 03:07:06;;;;;;;;;;;;;;;9.11;100;99659.02;;;;-72
2023/03/13 03:12:06;;;;;;;;;;;;;;;9.17;100;99663.13;;;;-72
2023/03/13 03:17:06;;;;;;;;;;;;;;;9.31;100;99660.17;;;;-71
2023/03/13 03:22:06;;;;;;;;;;;;;;;9.41;100;99639.72;;;;-73
2023/03/13 03:27:06;;;;;;;;;;;;;;;9.47;100;99630.47;;;;-73
2023/03/13 03:31:44;;;;;;;10.8;3.8;;;;;;;;;;;;;-72
2023/03/13 03:32:06;;;;;;;;;;;;;;;9.54;100;99621.03;;;;-73
2023/03/13 03:37:06;;;;;;;;;;;;;;;9.71;100;99633.63;;;;-72
2023/03/13 03:42:08;;;;;;;;;;;;;;;9.75;100;99610.2;;;;-72
2023/03/13 03:47:06;;;;;;;;;;;;;;;9.83;100;99614.58;;;;-72
2023/03/13 03:52:06;;;;;;;;;;;;;;;9.87;100;99630.78;;;;-72
2023/03/13 03:57:08;;;;;;;;;;;;;;;9.92;100;99602.42;;;;-72
2023/03/13 04:01:45;;;;;;;11.7;3.1;;;;;;;;;;;;;-72
2023/03/13 04:02:06;;;;;;;;;;;;;;;9.99;100;99609.56;;;;-72
2023/03/13 04:07:06;;;;;;;;;;;;;;;10.02;100;99621.56;;;;-74
2023/03/13 04:12:06;;;;;;;;;;;;;;;10.05;100;99609.67;;;;-72
2023/03/13 04:17:06;;;;;;;;;;;;;;;10.11;100;99604;;;;-73
2023/03/13 04:22:06;;;;;;;;;;;;;;;10.15;100;99602.09;;;;-73
2023/03/13 04:27:06;;;;;;;;;;;;;;;10.22;100;99603.33;;;;-73
2023/03/13 04:31:46;;;;;;;10.7;3;;;;;;;;;;;;;-72
2023/03/13 04:32:06;;;;;;;;;;;;;;;10.21;100;99599.88;;;;-71
2023/03/13 04:37:06;;;;;;;;;;;;;;;10.26;100;99588.82;;;;-73
2023/03/13 04:42:06;;;;;;;;;;;;;;;10.31;100;99583.38;;;;-73
2023/03/13 04:47:06;;;;;;;;;;;;;;;10.32;100;99572.75;;;;-72
2023/03/13 04:52:06;;;;;;;;;;;;;;;10.3;100;99564.33;;;;-73
2023/03/13 04:57:06;;;;;;;;;;;;;;;10.34;100;99581.21;;;;-73
2023/03/13 05:01:48;;;;;;;14.4;2.8;;;;;;;;;;;;;-72
2023/03/13 05:02:06;;;;;;;;;;;;;;;10.36;100;99564.35;;;;-72
2023/03/13 05:07:06;;;;;;;;;;;;;;;10.43;100;99563.05;;;;-73
2023/03/13 05:12:07;;;;;;;;;;;;;;;10.43;100;99526.19;;;;-74
2023/03/13 05:17:06;;;;;;;;;;;;;;;10.49;100;99534.99;;;;-72
2023/03/13 05:22:06;;;;;;;;;;;;;;;10.48;100;99537.08;;;;-73
2023/03/13 05:27:06;;;;;;;;;;;;;;;10.5;100;99517.61;;;;-73
2023/03/13 05:31:49;;;;;;;11.9;2.7;;;;;;;;;;;;;-72
2023/03/13 05:32:06;;;;;;;;;;;;;;;10.52;100;99520.28;;;;-73
2023/03/13 05:37:06;;;;;;;;;;;;;;;10.49;100;99502.98;;;;-73
2023/03/13 05:42:07;;;;;;;;;;;;;;;10.51;100;99524.72;;;;-73
2023/03/13 05:47:06;;;;;;;;;;;;;;;10.49;100;99524.59;;;;-73
2023/03/13 05:52:06;;;;;;;;;;;;;;;10.47;100;99520.53;;;;-72
2023/03/13 05:57:08;;;;;;;;;;;;;;;10.49;100;99508.27;;;;-73
2023/03/13 06:01:50;;;;;;;11.5;2.7;;;;;;;;;;;;;-74
2023/03/13 06:02:06;;;;;;;;;;;;;;;10.48;100;99513.13;;;;-74
2023/03/13 06:07:06;;;;;;;;;;;;;;;10.54;100;99510.67;;;;-75
2023/03/13 06:12:06;;;;;;;;;;;;;;;10.58;100;99505.45;;;;-73
2023/03/13 06:17:10;;;;;;;;;;;;;;;10.61;100;99507.63;;;;-75
2023/03/13 06:22:08;;;;;;;;;;;;;;;10.65;100;99498.6;;;;-72
2023/03/13 06:27:07;;;;;;;;;;;;;;;10.72;100;99503.23;;;;-73
2023/03/13 06:31:51;;;;;;;8.6;2.5;;;;;;;;;;;;;-72
2023/03/13 06:32:06;;;;;;;;;;;;;;;10.78;100;99514.88;;;;-71
2023/03/13 06:37:06;;;;;;;;;;;;;;;10.76;100;99520.27;;;;-73
2023/03/13 06:42:07;;;;;;;;;;;;;;;10.75;100;99496;;;;-74
2023/03/13 06:47:06;;;;;;;;;;;;;;;10.72;100;99516.92;;;;-74
2023/03/13 06:52:07;;;;;;;;;;;;;;;10.69;100;99507.08;;;;-74
2023/03/13 06:57:06;;;;;;;;;;;;;;;10.7;100;99501.62;;;;-74
2023/03/13 07:01:53;;;;;;;7.8;2.3;;;;;;;;;;;;;-74
2023/03/13 07:02:09;;;;;;;;;;;;;;;10.67;100;99519.66;;;;-74
2023/03/13 07:07:09;;;;;;;;;;;;;;;10.63;100;99523.38;;;;-74
2023/03/13 07:12:12;;;;;;;;;;;;;;;10.62;100;99539.8;;;;-74
2023/03/13 07:17:06;;;;;;;;;;;;;;;10.61;100;99549.84;;;;-75
2023/03/13 07:22:06;;;;;;;;;;;;;;;10.6;100;99539.7;;;;-73
2023/03/13 07:27:06;;;;;;;;;;;;;;;10.55;100;99532.13;;;;-74
2023/03/13 07:31:54;;;;;;;9.7;2.2;;;;;;;;;;;;;-74
2023/03/13 07:32:06;;;;;;;;;;;;;;;10.56;100;99553.11;;;;-73
2023/03/13 07:37:06;;;;;;;;;;;;;;;10.6;100;99553.39;;;;-73
2023/03/13 07:42:06;;;;;;;;;;;;;;;10.58;100;99549.97;;;;-74
2023/03/13 07:47:06;;;;;;;;;;;;;;;10.59;100;99536.55;;;;-75
2023/03/13 07:52:06;;;;;;;;;;;;;;;10.56;100;99530.08;;;;-73
2023/03/13 07:57:06;;;;;;;;;;;;;;;10.56;100;99529.67;;;;-74
2023/03/13 08:01:56;;;;;;;8.9;2.1;;;;;;;;;;;;;-74
2023/03/13 08:02:06;;;;;;;;;;;;;;;10.57;100;99511.34;;;;-72
2023/03/13 08:07:06;;;;;;;;;;;;;;;10.73;100;99488.07;;;;-72
2023/03/13 08:12:06;;;;;;;;;;;;;;;10.84;100;99508.75;;;;-74
2023/03/13 08:17:06;;;;;;;;;;;;;;;10.82;100;99498.46;;;;-74
2023/03/13 08:22:06;;;;;;;;;;;;;;;10.8;100;99466.73;;;;-75
2023/03/13 08:27:06;;;;;;;;;;;;;;;10.84;100;99476.53;;;;-75
2023/03/13 08:31:58;;;;;;;11.9;2.3;;;;;;;;;;;;;-74
2023/03/13 08:32:08;;;;;;;;;;;;;;;10.82;100;99456.11;;;;-73
2023/03/13 08:37:06;;;;;;;;;;;;;;;10.86;100;99455.13;;;;-73
2023/03/13 08:42:06;;;;;;;;;;;;;;;10.93;100;99466.64;;;;-74
2023/03/13 08:47:08;;;;;;;;;;;;;;;11;100;99467.23;;;;-74
2023/03/13 08:52:10;;;;;;;;;;;;;;;11.09;100;99466.67;;;;-73
2023/03/13 08:57:07;;;;;;;;;;;;;;;11.33;100;99459.72;;;;-74
2023/03/13 09:01:58;;;;;;;10.5;2.2;;;;;;;;;;;;;-73
2023/03/13 09:02:17;;;;;;;;;;;;;;;11.62;100;99445.12;;;;-73
2023/03/13 09:07:07;;;;;;;;;;;;;;;11.85;100;99438.09;;;;-75
2023/03/13 09:12:06;;;;;;;;;;;;;;;12.07;100;99419.81;;;;-75
2023/03/13 09:17:06;;;;;;;;;;;;;;;12.24;99.52344;99412.65;;;;-74
2023/03/13 09:22:07;;;;;;;;;;;;;;;12.37;97.78418;99418.44;;;;-74
2023/03/13 09:27:06;;;;;;;;;;;;;;;12.43;95.44043;99454.5;;;;-75
2023/03/13 09:32:00;;;;;;;13.9;2.3;;;;;;;;;;;;;-75
2023/03/13 09:32:09;;;;;;;;;;;;;;;12.52;94.48828;99394.8;;;;-73
2023/03/13 09:37:08;;;;;;;;;;;;;;;12.58;94.77734;99419.73;;;;-75
2023/03/13 09:42:13;;;;;;;;;;;;;;;12.63;94.06738;99423.89;;;;-74
2023/03/13 09:47:09;;;;;;;;;;;;;;;12.65;93.56152;99410.56;;;;-75
2023/03/13 09:52:13;;;;;;;;;;;;;;;12.66;93.24219;99382.78;;;;-73
2023/03/13 09:57:11;;;;;;;;;;;;;;;12.5;94.52734;99403.68;;;;-73
2023/03/13 10:02:03;;;;;;;12;1.9;;;;;;;;;;;;;-75
2023/03/13 10:02:18;;;;;;;;;;;;;;;12.48;95.17383;99386.27;;;;-74
2023/03/13 10:07:07;;;;;;;;;;;;;;;12.55;94.40625;99380.91;;;;-74
2023/03/13 10:12:17;;;;;;;;;;;;;;;12.54;93.93848;99378.09;;;;-75
2023/03/13 10:22:14;;;;;;;;;;;;;;;12.81;93.49902;99339.36;;;;-78
2023/03/13 10:27:14;;;;;;;;;;;;;;;12.86;91.89941;99352.84;;;;-76
2023/03/13 10:32:04;;;;;;;6.8;1.7;;;;;;;;;;;;;-73
2023/03/13 10:32:18;;;;;;;;;;;;;;;12.89;92.59473;99339.19;;;;-75
2023/03/13 10:37:09;;;;;;;;;;;;;;;12.86;91.60059;99333.56;;;;-76
2023/03/13 10:42:17;;;;;;;;;;;;;;;13.04;90.3291;99377.45;;;;-77
2023/03/13 10:47:18;;;;;;;;;;;;;;;13.01;89.07129;99343.59;;;;-77
2023/03/13 10:52:11;;;;;;;;;;;;;;;13.12;87.9043;99336.72;;;;-77
2023/03/13 10:57:34;;;;;;;;;;;;;;;13.13;87.63965;99376;;;;-80
2023/03/13 11:03:38;;;;;;;;;;;;;;;;;;;;;
2023/03/13 11:15:43;;;;;;;;;;;;;;;13.36;87.85254;99347.86;;;;-76
2023/03/13 11:20:42;;;;;;;;;;;;;;;13.41;87.15039;99362.53;;;;-78
2023/03/13 11:59:11;;;;;;;;;;;;;;;13.52;83.32324;99380.02;;;;-77
2023/03/13 13:29:04;;;;;;;;;;;;;;;;;;;;;
2023/03/13 13:45:04;;;;;;;;;;;;;;;13.52;74.80957;99279.05;;;;-76
2023/03/13 13:54:58;;;;;;;;;;;;;;;13.44;75.47559;99234.63;;;;-76
2023/03/13 13:59:53;;;;;;;;;;;;;;;13.47;75.44824;99239.94;;;;-77
2023/03/13 14:02:27;;;;;;;17.2;3;;;;;;;;;;;;;-74
2023/03/13 14:04:43;;;;;;;;;;;;;;;13.52;74.28516;99217.05;;;;-74
2023/03/13 14:09:58;;;;;;;;;;;;;;;13.48;74.85742;99247.58;;;;-77
2023/03/13 14:14:48;;;;;;;;;;;;;;;13.47;73.96484;99236.53;;;;-77
2023/03/13 14:20:03;;;;;;;;;;;;;;;13.49;73.58887;99239.53;;;;-76
2023/03/13 14:24:43;;;;;;;;;;;;;;;13.44;73.5791;99207.77;;;;-77
2023/03/13 15:32:29;;;;;;;;;;;;;;;12.97;73.97949;99207.27;;;;-79
2023/03/13 15:33:31;;;;;;;17;3.2;;;;;;;;;;;;;-79
2023/03/13 16:02:10;;;;;;;;;;;;;;;12.63;74.56934;99132.36;;;;-76
2023/03/13 16:07:10;;;;;;;;;;;;;;;12.54;74.84473;99140.17;;;;-76
2023/03/13 16:37:13;;;;;;;;;;;;;;;12.07;76.41992;99111.7;;;;-77
2023/03/13 16:42:16;;;;;;;;;;;;;;;12.02;76.68848;99116.13;;;;-76
2023/03/13 16:46:58;;;;;;;;;;;;;;;11.9;77.1123;99132.64;;;;-77
2023/03/13 16:57:04;;;;;;;;;;;;;;;11.65;77.125;99103.88;;;;-77
2023/03/13 17:07:38;;;;;;;;;;;;;;;11.41;77.48145;99094.01;;;;-77
2023/03/13 17:12:42;;;;;;;;;;;;;;;;;;;;;
2023/03/13 17:27:07;;;;;;;;;;;;;;;11;78.62793;99084.33;;;;-77
2023/03/13 17:37:19;;;;;;;;;;;;;;;10.83;78.62988;99101.73;;;;-77
2023/03/13 17:55:25;;;;;;;;;;;;;;;10.55;80.1084;99099.73;;;;-77
2023/03/13 18:16:47;;;;;;;;;;;;;;;10.29;81.70508;99094.56;;;;-77
2023/03/13 18:33:40;;;;;;;;;;;;;;;10.16;83.40625;99101.06;;;;-77
2023/03/13 18:43:23;;;;;;;;;;;;;;;10.13;83.32422;99078.85;;;;-77
2023/03/13 18:53:33;;;;;;;;;;;;;;;10.12;83.05566;99058.9;;;;-76
2023/03/13 18:58:17;;;;;;;;;;;;;;;10.09;83.20508;99052.7;;;;-77
2023/03/13 19:04:05;;;;;;;;;;;;;;;10.04;83.38379;99032.51;;;;-77
2023/03/13 19:08:28;;;;;;;;;;;;;;;10.05;83.84961;99044.73;;;;-77
2023/03/13 19:31:49;;;;;;;;;;;;;;;9.9;84.625;99033.33;;;;-78
2023/03/13 19:36:56;;;;;;;;;;;;;;;9.88;84.45801;99014.45;;;;-77
2023/03/13 19:42:11;;;;;;;;;;;;;;;;;;;;;
2023/03/13 19:46:51;;;;;;;;;;;;;;;9.76;84.54395;98994.54;;;;-77
2023/03/13 20:04:46;;;;;;;;;;;;;;;9.77;84.67773;98998.63;;;;-79
2023/03/13 20:14:39;;;;;;;;;;;;;;;9.72;84.75781;98976.83;;;;-77
2023/03/13 20:33:06;;;;;;;;;;;;;;;9.67;84.92285;98960.78;;;;-77
2023/03/13 21:01:29;;;;;;;;;;;;;;;9.61;84.84473;98915.85;;;;-78
2023/03/13 21:02:52;;;;;;;17.8;2.4;;;;;;;;;;;;;-77
2023/03/13 21:09:13;;;;;;;;;;;;;;;;;;;;;
2023/03/13 21:19:07;;;;;;;;;;;;;;;9.53;85.42578;98901.7;;;;-77
2023/03/13 21:24:02;;;;;;;;;;;;;;;9.49;85.50488;98900.66;;;;-78
2023/03/13 21:29:09;;;;;;;;;;;;;;;9.48;85.2959;98898.28;;;;-78
2023/03/13 21:34:06;;;;;;;;;;;;;;;9.47;85.40039;98914.66;;;;-77
2023/03/13 21:38:54;;;;;;;;;;;;;;;9.44;85.5957;98919.23;;;;-77
2023/03/13 21:47:10;;;;;;;;;;;;;;;9.43;85.99902;98910.12;;;;-77
2023/03/13 21:51:52;;;;;;;;;;;;;;;9.48;85.73438;98904.45;;;;-77
2023/03/13 21:57:01;;;;;;;;;;;;;;;9.51;85.81738;98893.2;;;;-76
2023/03/13 22:02:03;;;;;;;;;;;;;;;9.54;85.88867;98895.55;;;;-77
2023/03/13 22:06:54;;;;;;;;;;;;;;;9.53;85.99902;98884.81;;;;-77
2023/03/13 22:17:03;;;;;;;;;;;;;;;9.61;85.57227;98885.7;;;;-77
2023/03/13 22:26:58;;;;;;;;;;;;;;;9.61;85.49512;98855.8;;;;-76
2023/03/13 22:32:00;;;;;;;;;;;;;;;9.57;85.51172;98855.19;;;;-78
2023/03/13 22:46:10;;;;;;;;;;;;;;;9.58;85.93262;98875.07;;;;-77
2023/03/13 23:09:45;;;;;;;;;;;;;;;9.58;86.8125;98849.69;;;;-78
2023/03/13 23:19:31;;;;;;;;;;;;;;;9.65;87.10352;98844.38;;;;-78
2023/03/13 23:29:50;;;;;;;;;;;;;;;;;;;;;
2023/03/13 23:33:10;;;;;;;8.9;1.8;;;;;;;;;;;;;-78
2023/03/13 23:49:11;;;;;;;;;;;;;;;9.63;88.49707;98833.66;;;;-77
2023/03/13 23:57:12;;;;;;;;;;;;;;;9.56;88.90137;98845.3;;;;-76
